createdAt,value
2018-02-18T00:02:01.789Z,19.23
2018-02-18T00:04:28.159Z,21.30
2018-02-18T00:06:54.393Z,20.77
2018-02-18T00:09:20.569Z,20.40
2018-02-18T00:11:47.459Z,21.63
2018-02-18T00:14:15.555Z,19.33
2018-02-18T00:16:42.566Z,20.50
2018-02-18T00:19:08.790Z,20.77
2018-02-18T00:21:34.988Z,20.53
2018-02-18T00:24:01.195Z,21.27
2018-02-18T00:26:27.612Z,19.70
2018-02-18T00:28:53.784Z,20.07
2018-02-18T00:31:20.054Z,21.13
2018-02-18T00:33:46.213Z,20.87
2018-02-18T00:36:12.444Z,22.87
2018-02-18T00:38:38.627Z,21.00
2018-02-18T00:41:04.849Z,20.63
2018-02-18T00:43:31.034Z,20.20
2018-02-18T00:45:57.304Z,21.07
2018-02-18T00:48:23.495Z,20.60
2018-02-18T00:50:49.747Z,21.07
2018-02-18T00:53:15.958Z,19.70
2018-02-18T00:55:42.173Z,20.53
2018-02-18T00:58:09.147Z,22.10
2018-02-18T01:00:35.548Z,21.30
2018-02-18T01:03:01.762Z,20.50
2018-02-18T01:05:28.011Z,21.77
2018-02-18T01:07:54.429Z,20.20
2018-02-18T01:10:20.720Z,20.00
2018-02-18T01:12:46.954Z,19.90
2018-02-18T01:15:13.407Z,21.17
2018-02-18T01:17:39.629Z,19.23
2018-02-18T01:20:05.830Z,19.50
2018-02-18T01:22:32.150Z,21.40
2018-02-18T01:24:58.430Z,21.90
2018-02-18T01:27:24.684Z,19.33
2018-02-18T01:29:50.989Z,20.60
2018-02-18T01:32:17.210Z,20.93
2018-02-18T01:34:43.444Z,19.73
2018-02-18T01:37:09.845Z,19.67
2018-02-18T01:39:36.069Z,19.85
2018-02-18T01:42:03.051Z,19.63
2018-02-18T01:44:29.287Z,20.30
2018-02-18T01:46:55.596Z,18.03
2018-02-18T01:49:21.844Z,21.70
2018-02-18T01:51:48.028Z,22.30
2018-02-18T01:54:14.341Z,19.10
2018-02-18T01:56:40.545Z,19.63
2018-02-18T01:59:06.797Z,20.73
2018-02-18T02:01:34.577Z,21.87
2018-02-18T02:04:01.657Z,20.60
2018-02-18T02:06:27.977Z,19.80
2018-02-18T02:08:54.933Z,22.17
2018-02-18T02:11:21.992Z,20.70
2018-02-18T02:13:49.072Z,19.33
2018-02-18T02:16:15.290Z,20.67
2018-02-18T02:18:42.220Z,21.23
2018-02-18T02:21:08.482Z,22.50
2018-02-18T02:23:35.444Z,20.20
2018-02-18T02:26:02.396Z,20.50
2018-02-18T02:28:28.608Z,20.27
2018-02-18T02:30:54.985Z,21.37
2018-02-18T02:33:21.233Z,21.77
2018-02-18T02:35:47.437Z,22.80
2018-02-18T02:38:13.947Z,20.70
2018-02-18T02:40:40.120Z,20.47
2018-02-18T02:43:06.356Z,22.23
2018-02-18T02:45:33.730Z,20.17
2018-02-18T02:47:59.931Z,21.37
2018-02-18T02:50:26.145Z,20.05
2018-02-18T02:52:53.078Z,20.70
2018-02-18T02:55:19.434Z,18.83
2018-02-18T02:57:45.621Z,21.10
2018-02-18T03:00:11.824Z,21.43
2018-02-18T03:02:38.198Z,20.07
2018-02-18T03:05:04.372Z,21.73
2018-02-18T03:07:30.583Z,19.20
2018-02-18T03:09:57.104Z,19.87
2018-02-18T03:12:23.336Z,21.93
2018-02-18T03:14:49.517Z,19.97
2018-02-18T03:17:16.020Z,21.77
2018-02-18T03:19:42.229Z,20.77
2018-02-18T03:22:08.411Z,21.10
2018-02-18T03:24:35.322Z,20.23
2018-02-18T03:27:01.528Z,21.97
2018-02-18T03:29:27.836Z,20.90
2018-02-18T03:31:54.344Z,21.30
2018-02-18T03:34:20.592Z,20.63
2018-02-18T03:36:47.588Z,22.40
2018-02-18T03:39:13.825Z,20.03
2018-02-18T03:41:40.215Z,18.70
2018-02-18T03:44:06.432Z,20.70
2018-02-18T03:46:33.454Z,21.40
2018-02-18T03:49:00.745Z,21.43
2018-02-18T03:51:27.844Z,19.87
2018-02-18T03:53:54.116Z,21.40
2018-02-18T03:56:20.330Z,21.23
2018-02-18T03:58:46.713Z,20.43
2018-02-18T04:01:12.972Z,20.17
2018-02-18T04:03:39.179Z,18.90
2018-02-18T04:06:05.985Z,20.20
2018-02-18T04:08:33.153Z,21.10
2018-02-18T04:10:59.376Z,20.97
2018-02-18T04:13:25.597Z,21.40
2018-02-18T04:15:53.025Z,23.53
2018-02-18T04:18:19.256Z,19.20
2018-02-18T04:20:45.441Z,20.67
2018-02-18T04:23:11.709Z,20.97
2018-02-18T04:25:37.885Z,21.00
2018-02-18T04:28:04.125Z,22.57
2018-02-18T04:30:30.419Z,19.97
2018-02-18T04:32:56.658Z,22.63
2018-02-18T04:35:23.602Z,22.33
2018-02-18T04:37:49.866Z,19.83
2018-02-18T04:40:16.531Z,21.20
2018-02-18T04:42:42.781Z,21.23
2018-02-18T04:45:09.745Z,19.45
2018-02-18T04:47:36.113Z,23.25
2018-02-18T04:50:02.329Z,20.62
2018-02-18T04:52:28.545Z,20.70
2018-02-18T04:54:55.489Z,20.80
2018-02-18T04:57:21.968Z,22.17
2018-02-18T04:59:48.358Z,19.90
2018-02-18T05:02:14.556Z,21.20
2018-02-18T05:04:41.607Z,20.60
2018-02-18T05:07:10.373Z,21.00
2018-02-18T05:09:36.608Z,21.00
2018-02-18T05:12:02.883Z,21.80
2018-02-18T05:14:29.097Z,20.97
2018-02-18T05:16:55.306Z,21.15
2018-02-18T05:19:21.541Z,20.63
2018-02-18T05:21:47.941Z,21.30
2018-02-18T05:24:14.381Z,21.97
2018-02-18T05:26:40.620Z,21.13
2018-02-18T05:29:06.832Z,21.77
2018-02-18T05:31:33.404Z,20.57
2018-02-18T05:33:59.665Z,19.50
2018-02-18T05:36:25.848Z,20.77
2018-02-18T05:38:52.261Z,19.47
2018-02-18T05:41:19.218Z,21.10
2018-02-18T05:43:45.456Z,20.97
2018-02-18T05:46:12.665Z,20.67
2018-02-18T05:48:39.112Z,23.80
2018-02-18T05:51:05.361Z,19.98
2018-02-18T05:53:32.342Z,20.05
2018-02-18T05:55:58.695Z,21.80
2018-02-18T05:58:25.698Z,23.27
2018-02-18T06:00:51.889Z,20.87
2018-02-18T06:03:18.177Z,22.17
2018-02-18T06:05:44.529Z,20.65
2018-02-18T06:08:10.767Z,23.80
2018-02-18T06:10:36.975Z,23.83
2018-02-18T06:13:03.499Z,23.33
2018-02-18T06:15:29.679Z,21.97
2018-02-18T06:17:55.884Z,22.20
2018-02-18T06:20:22.242Z,20.20
2018-02-18T06:22:48.492Z,22.33
2018-02-18T06:25:15.524Z,22.33
2018-02-18T06:27:41.944Z,23.30
2018-02-18T06:30:08.147Z,21.60
2018-02-18T06:32:35.626Z,22.83
2018-02-18T06:35:03.936Z,21.50
2018-02-18T06:37:33.650Z,21.67
2018-02-18T06:40:00.900Z,22.30
2018-02-18T06:42:27.176Z,22.58
2018-02-18T06:44:54.546Z,22.77
2018-02-18T06:47:20.745Z,22.27
2018-02-18T06:49:47.698Z,24.00
2018-02-18T06:52:16.060Z,22.43
2018-02-18T06:54:42.454Z,25.13
2018-02-18T06:57:08.864Z,25.57
2018-02-18T06:59:35.197Z,24.65
2018-02-18T07:02:01.502Z,24.30
2018-02-18T07:04:27.849Z,22.17
2018-02-18T07:06:54.329Z,24.45
2018-02-18T07:09:20.589Z,22.95
2018-02-18T07:11:47.067Z,22.20
2018-02-18T07:14:13.337Z,21.70
2018-02-18T07:16:39.636Z,32.67
2018-02-18T07:19:06.004Z,25.50
2018-02-18T07:21:32.643Z,34.07
2018-02-18T07:24:00.006Z,30.40
2018-02-18T07:26:26.257Z,29.07
2018-02-18T07:28:52.552Z,32.77
2018-02-18T07:31:18.767Z,33.53
2018-02-18T07:33:44.955Z,31.83
2018-02-18T07:36:11.366Z,36.50
2018-02-18T07:38:37.565Z,33.07
2018-02-18T07:41:03.769Z,32.60
2018-02-18T07:43:30.268Z,32.60
2018-02-18T07:45:56.468Z,31.33
2018-02-18T07:48:22.689Z,33.37
2018-02-18T07:50:49.125Z,29.67
2018-02-18T07:53:15.372Z,31.60
2018-02-18T07:55:41.581Z,34.07
2018-02-18T07:58:08.614Z,33.23
2018-02-18T08:00:34.808Z,32.27
2018-02-18T08:03:01.044Z,33.60
2018-02-18T08:05:27.280Z,35.30
2018-02-18T08:07:53.529Z,35.80
2018-02-18T08:10:19.718Z,36.42
2018-02-18T08:12:46.232Z,34.97
2018-02-18T08:15:12.549Z,36.30
2018-02-18T08:17:38.841Z,37.17
2018-02-18T08:20:05.768Z,35.03
2018-02-18T08:22:33.674Z,37.07
2018-02-18T08:24:59.973Z,36.07
2018-02-18T08:27:26.163Z,36.22
2018-02-18T08:29:52.412Z,37.10
2018-02-18T08:32:18.895Z,36.40
2018-02-18T08:34:45.190Z,36.37
2018-02-18T08:37:11.937Z,35.57
2018-02-18T08:39:39.043Z,36.67
2018-02-18T08:42:05.294Z,35.63
2018-02-18T08:44:31.559Z,34.07
2018-02-18T08:46:57.963Z,38.13
2018-02-18T08:49:24.153Z,38.00
2018-02-18T08:51:50.325Z,35.40
2018-02-18T08:54:17.305Z,35.70
2018-02-18T08:56:43.764Z,37.20
2018-02-18T08:59:09.960Z,36.60
2018-02-18T09:01:37.075Z,37.17
2018-02-18T09:04:03.526Z,34.50
2018-02-18T09:06:29.769Z,36.10
2018-02-18T09:08:55.991Z,36.20
2018-02-18T09:11:22.402Z,34.77
2018-02-18T09:13:48.799Z,33.23
2018-02-18T09:16:15.001Z,32.43
2018-02-18T09:18:41.217Z,35.23
2018-02-18T09:21:07.504Z,34.70
2018-02-18T09:23:33.689Z,32.67
2018-02-18T09:26:00.038Z,35.20
2018-02-18T09:28:27.653Z,32.90
2018-02-18T09:30:53.955Z,33.10
2018-02-18T09:33:21.132Z,34.13
2018-02-18T09:35:47.427Z,34.03
2018-02-18T09:38:13.868Z,32.40
2018-02-18T09:40:40.086Z,34.63
2018-02-18T09:43:06.349Z,32.40
2018-02-18T09:45:33.478Z,33.83
2018-02-18T09:47:59.651Z,36.07
2018-02-18T09:50:25.844Z,32.87
2018-02-18T09:52:52.192Z,34.30
2018-02-18T09:55:18.394Z,32.67
2018-02-18T09:57:44.550Z,35.20
2018-02-18T10:00:11.485Z,33.50
2018-02-18T10:02:37.807Z,33.20
2018-02-18T10:05:04.008Z,33.73
2018-02-18T10:07:30.196Z,33.00
2018-02-18T10:09:56.527Z,31.00
2018-02-18T10:12:22.730Z,30.23
2018-02-18T10:14:48.997Z,30.37
2018-02-18T10:17:15.638Z,30.83
2018-02-18T10:19:41.835Z,30.50
2018-02-18T10:22:08.027Z,30.60
2018-02-18T10:24:35.478Z,29.40
2018-02-18T10:27:01.693Z,30.90
2018-02-18T10:29:29.790Z,29.43
2018-02-18T10:31:56.004Z,32.00
2018-02-18T10:34:22.669Z,28.13
2018-02-18T10:36:48.953Z,28.13
2018-02-18T10:39:15.189Z,28.20
2018-02-18T10:41:41.509Z,26.97
2018-02-18T10:44:08.481Z,27.10
2018-02-18T10:46:34.733Z,27.90
2018-02-18T10:49:02.738Z,27.20
2018-02-18T10:51:31.417Z,26.57
2018-02-18T10:53:58.184Z,28.70
2018-02-18T10:56:24.555Z,25.53
2018-02-18T10:58:51.578Z,25.60
2018-02-18T11:01:18.568Z,26.60
2018-02-18T11:03:45.313Z,25.80
2018-02-18T11:06:11.721Z,23.87
2018-02-18T11:08:38.021Z,22.20
2018-02-18T11:11:04.224Z,22.47
2018-02-18T11:13:30.844Z,22.00
2018-02-18T11:15:57.315Z,22.40
2018-02-18T11:18:23.551Z,22.40
2018-02-18T11:20:49.897Z,21.13
2018-02-18T11:23:16.282Z,20.63
2018-02-18T11:25:42.972Z,23.30
2018-02-18T11:28:09.878Z,20.03
2018-02-18T11:30:37.345Z,23.27
2018-02-18T11:33:03.711Z,23.00
2018-02-18T11:35:33.112Z,22.17
2018-02-18T11:37:59.264Z,22.63
2018-02-18T11:40:25.801Z,20.93
2018-02-18T11:42:52.343Z,21.93
2018-02-18T11:45:18.589Z,23.40
2018-02-18T11:47:44.782Z,20.57
2018-02-18T11:50:11.121Z,22.70
2018-02-18T11:52:37.397Z,20.67
2018-02-18T11:55:03.579Z,19.97
2018-02-18T11:57:29.981Z,17.37
2018-02-18T11:59:57.077Z,19.60
2018-02-18T12:02:24.081Z,18.47
2018-02-18T12:04:50.334Z,18.23
2018-02-18T12:07:16.564Z,16.47
2018-02-18T12:09:42.979Z,16.90
2018-02-18T12:12:09.156Z,18.23
2018-02-18T12:14:35.833Z,18.50
2018-02-18T12:17:02.016Z,18.90
2018-02-18T12:19:29.092Z,17.63
2018-02-18T12:21:55.682Z,17.10
2018-02-18T12:24:21.893Z,14.40
2018-02-18T12:26:48.075Z,14.77
2018-02-18T12:29:14.473Z,14.17
2018-02-18T12:31:40.929Z,15.30
2018-02-18T12:34:07.220Z,14.90
2018-02-18T12:36:33.418Z,14.77
2018-02-18T12:38:59.840Z,15.13
2018-02-18T12:41:26.031Z,13.27
2018-02-18T12:43:52.240Z,13.77
2018-02-18T12:46:19.417Z,13.10
2018-02-18T12:48:45.613Z,15.13
2018-02-18T12:51:11.841Z,14.10
2018-02-18T12:53:38.080Z,12.73
2018-02-18T12:56:04.316Z,12.23
2018-02-18T12:58:30.625Z,12.70
2018-02-18T13:00:56.930Z,13.57
2018-02-18T13:03:23.307Z,13.77
2018-02-18T13:05:49.537Z,13.03
2018-02-18T13:08:15.806Z,14.00
2018-02-18T13:10:42.019Z,14.20
2018-02-18T13:13:08.219Z,15.10
2018-02-18T13:15:34.652Z,15.17
2018-02-18T13:18:00.853Z,14.80
2018-02-18T13:20:27.078Z,14.37
2018-02-18T13:22:53.469Z,13.90
2018-02-18T13:25:19.675Z,14.67
2018-02-18T13:27:46.001Z,13.13
2018-02-18T13:30:12.500Z,13.90
2018-02-18T13:32:40.800Z,14.30
2018-02-18T13:35:06.989Z,12.70
2018-02-18T13:37:33.181Z,12.50
2018-02-18T13:39:59.569Z,12.87
2018-02-18T13:42:25.759Z,13.13
2018-02-18T13:44:52.011Z,11.50
2018-02-18T13:47:18.297Z,11.70
2018-02-18T13:49:44.493Z,14.53
2018-02-18T13:52:10.689Z,10.90
2018-02-18T13:54:36.909Z,12.67
2018-02-18T13:57:03.110Z,12.60
2018-02-18T13:59:29.351Z,11.23
2018-02-18T14:01:55.559Z,11.03
2018-02-18T14:04:21.815Z,10.20
2018-02-18T14:06:48.155Z,10.07
2018-02-18T14:09:14.357Z,11.93
2018-02-18T14:11:40.583Z,10.93
2018-02-18T14:14:06.788Z,11.67
2018-02-18T14:16:33.282Z,10.63
2018-02-18T14:18:59.784Z,13.27
2018-02-18T14:21:25.981Z,10.60
2018-02-18T14:23:52.212Z,11.53
2018-02-18T14:26:19.496Z,10.17
2018-02-18T14:28:45.724Z,11.20
2018-02-18T14:31:11.954Z,11.20
2018-02-18T14:33:38.914Z,10.90
2018-02-18T14:36:05.423Z,10.83
2018-02-18T14:38:31.690Z,11.60
2018-02-18T14:40:58.611Z,11.77
2018-02-18T14:43:37.026Z,12.17
2018-02-18T14:46:15.403Z,11.70
2018-02-18T14:48:54.643Z,13.73
2018-02-18T14:51:33.107Z,12.10
2018-02-18T14:54:11.616Z,12.00
2018-02-18T14:56:50.748Z,11.03
2018-02-18T14:59:17.007Z,11.83
2018-02-18T15:01:43.196Z,11.97
2018-02-18T15:04:09.822Z,12.23
2018-02-18T15:06:36.021Z,13.17
2018-02-18T15:09:02.998Z,11.03
2018-02-18T15:11:29.244Z,11.30
2018-02-18T15:13:56.636Z,13.50
2018-02-18T15:16:22.871Z,13.10
2018-02-18T15:18:49.068Z,12.70
2018-02-18T15:21:16.210Z,13.00
2018-02-18T15:23:42.388Z,13.20
2018-02-18T15:26:08.580Z,13.40
2018-02-18T15:28:34.881Z,12.97
2018-02-18T15:31:01.112Z,12.60
2018-02-18T15:33:27.276Z,12.97
2018-02-18T15:35:54.399Z,14.27
2018-02-18T15:38:21.641Z,12.20
2018-02-18T15:40:47.885Z,12.30
2018-02-18T15:43:18.760Z,14.10
2018-02-18T15:45:45.721Z,13.07
2018-02-18T15:48:12.656Z,14.20
2018-02-18T15:50:39.640Z,14.23
2018-02-18T15:53:06.077Z,14.70
2018-02-18T15:55:35.142Z,17.83
2018-02-18T15:58:01.372Z,15.87
2018-02-18T16:00:27.633Z,65.40
2018-02-18T16:02:53.922Z,31.43
2018-02-18T16:05:21.078Z,21.70
2018-02-18T16:07:48.027Z,15.47
2018-02-18T16:10:14.213Z,15.67
2018-02-18T16:12:40.561Z,14.40
2018-02-18T16:15:06.772Z,16.20
2018-02-18T16:17:32.985Z,14.60
2018-02-18T16:19:59.380Z,13.00
2018-02-18T16:22:25.618Z,14.90
2018-02-18T16:24:51.796Z,14.30
2018-02-18T16:27:24.776Z,14.20
2018-02-18T16:29:50.997Z,14.27
2018-02-18T16:32:17.258Z,13.03
2018-02-18T16:34:43.548Z,13.80
2018-02-18T16:37:10.535Z,13.30
2018-02-18T16:39:36.744Z,14.87
2018-02-18T16:42:03.746Z,14.53
2018-02-18T16:44:31.409Z,15.10
2018-02-18T16:46:57.645Z,13.00
2018-02-18T16:49:23.852Z,13.07
2018-02-18T16:51:50.656Z,13.73
2018-02-18T16:54:17.679Z,14.90
2018-02-18T16:56:44.661Z,15.20
2018-02-18T16:59:10.856Z,15.00
2018-02-18T17:01:37.149Z,16.87
2018-02-18T17:04:03.379Z,14.53
2018-02-18T17:06:29.594Z,14.70
2018-02-18T17:08:56.092Z,16.00
2018-02-18T17:11:22.321Z,15.80
2018-02-18T17:13:48.530Z,14.90
2018-02-18T17:16:15.479Z,15.30
2018-02-18T17:18:41.719Z,15.10
2018-02-18T17:21:08.725Z,15.07
2018-02-18T17:23:34.904Z,15.00
2018-02-18T17:26:01.173Z,14.93
2018-02-18T17:28:28.105Z,15.33
2018-02-18T17:30:54.350Z,16.93
2018-02-18T17:33:20.714Z,16.17
2018-02-18T17:35:47.783Z,16.30
2018-02-18T17:38:13.985Z,16.33
2018-02-18T17:40:40.221Z,21.37
2018-02-18T17:43:07.219Z,18.53
2018-02-18T17:45:34.183Z,18.30
2018-02-18T17:48:01.149Z,17.77
2018-02-18T17:50:33.391Z,18.17
2018-02-18T17:52:59.640Z,17.93
2018-02-18T17:55:25.841Z,18.13
2018-02-18T17:57:52.385Z,20.13
2018-02-18T18:00:19.077Z,20.27
2018-02-18T18:02:46.066Z,18.27
2018-02-18T18:05:12.571Z,18.90
2018-02-18T18:07:38.956Z,17.67
2018-02-18T18:10:05.906Z,19.57
2018-02-18T18:12:32.829Z,19.03
2018-02-18T18:14:59.016Z,18.67
2018-02-18T18:17:25.217Z,19.97
2018-02-18T18:19:51.416Z,27.00
2018-02-18T18:22:17.728Z,22.30
2018-02-18T18:24:43.948Z,21.50
2018-02-18T18:27:11.205Z,20.93
2018-02-18T18:29:37.497Z,19.33
2018-02-18T18:32:03.960Z,22.37
2018-02-18T18:34:30.160Z,21.13
2018-02-18T18:36:57.109Z,18.17
2018-02-18T18:39:23.380Z,19.37
2018-02-18T18:41:49.672Z,19.60
2018-02-18T18:44:19.401Z,19.80
2018-02-18T18:46:45.692Z,18.40
2018-02-18T18:49:11.894Z,18.43
2018-02-18T18:51:38.841Z,18.43
2018-02-18T18:54:05.252Z,19.90
2018-02-18T18:56:33.553Z,21.00
2018-02-18T18:58:59.819Z,21.03
2018-02-18T19:01:27.168Z,19.50
2018-02-18T19:03:53.556Z,18.73
2018-02-18T19:06:20.500Z,18.73
2018-02-18T19:08:46.939Z,18.70
2018-02-18T19:11:13.334Z,18.80
2018-02-18T19:13:39.525Z,19.27
2018-02-18T19:16:06.178Z,20.00
2018-02-18T19:18:32.406Z,21.60
2018-02-18T19:20:58.633Z,28.07
2018-02-18T19:23:25.889Z,27.50
2018-02-18T19:25:52.165Z,22.40
2018-02-18T19:28:18.731Z,24.70
2018-02-18T19:30:45.718Z,24.33
2018-02-18T19:33:11.967Z,23.10
2018-02-18T19:35:38.190Z,22.67
2018-02-18T19:38:04.550Z,22.77
2018-02-18T19:40:30.852Z,22.97
2018-02-18T19:42:57.101Z,21.60
2018-02-18T19:45:23.478Z,23.13
2018-02-18T19:47:49.729Z,19.90
2018-02-18T19:50:15.916Z,22.40
2018-02-18T19:52:43.375Z,26.93
2018-02-18T19:55:09.556Z,22.40
2018-02-18T19:57:35.763Z,20.17
2018-02-18T20:00:02.155Z,23.70
2018-02-18T20:02:29.718Z,21.40
2018-02-18T20:04:56.158Z,20.63
2018-02-18T20:07:22.453Z,21.83
2018-02-18T20:09:49.721Z,20.77
2018-02-18T20:12:16.215Z,20.43
2018-02-18T20:14:42.439Z,19.80
2018-02-18T20:17:09.390Z,21.60
2018-02-18T20:19:35.794Z,33.30
2018-02-18T20:22:02.038Z,20.67
2018-02-18T20:24:28.373Z,21.77
2018-02-18T20:26:55.247Z,18.90
2018-02-18T20:29:22.607Z,20.87
2018-02-18T20:31:48.831Z,20.60
2018-02-18T20:34:15.053Z,19.73
2018-02-18T20:36:41.896Z,21.57
2018-02-18T20:39:08.272Z,19.90
2018-02-18T20:41:34.587Z,20.67
2018-02-18T20:44:01.310Z,20.40
2018-02-18T20:46:27.632Z,18.50
2018-02-18T20:48:53.861Z,18.63
2018-02-18T20:51:20.301Z,18.20
2018-02-18T20:53:46.877Z,19.63
2018-02-18T20:56:13.142Z,18.50
2018-02-18T20:58:39.491Z,19.00
2018-02-18T21:01:06.537Z,20.50
2018-02-18T21:03:32.900Z,20.27
2018-02-18T21:06:02.332Z,19.70
2018-02-18T21:08:31.634Z,20.70
2018-02-18T21:10:58.043Z,87.57
2018-02-18T21:13:37.359Z,22.03
2018-02-18T21:16:03.621Z,20.17
2018-02-18T21:18:29.850Z,26.37
2018-02-18T21:20:56.044Z,24.00
2018-02-18T21:23:23.128Z,20.63
2018-02-18T21:25:49.312Z,20.57
2018-02-18T21:28:15.515Z,21.80
2018-02-18T21:30:42.080Z,21.50
2018-02-18T21:33:08.274Z,27.63
2018-02-18T21:35:35.228Z,28.67
2018-02-18T21:38:02.479Z,27.27
2018-02-18T21:40:30.854Z,25.13
2018-02-18T21:42:57.225Z,25.67
2018-02-18T21:45:23.431Z,23.37
2018-02-18T21:47:49.637Z,22.80
2018-02-18T21:50:16.117Z,22.90
2018-02-18T21:52:42.312Z,23.30
2018-02-18T21:55:09.228Z,22.20
2018-02-18T21:57:35.523Z,21.77
2018-02-18T22:00:01.701Z,21.40
2018-02-18T22:02:27.910Z,22.50
2018-02-18T22:04:54.281Z,23.53
2018-02-18T22:07:20.460Z,22.13
2018-02-18T22:09:47.364Z,21.40
2018-02-18T22:12:13.575Z,20.83
2018-02-18T22:14:39.796Z,21.67
2018-02-18T22:17:06.773Z,19.77
2018-02-18T22:19:33.809Z,21.83
2018-02-18T22:22:00.133Z,19.17
2018-02-18T22:24:26.335Z,20.97
2018-02-18T22:26:52.529Z,20.37
2018-02-18T22:29:18.946Z,22.07
2018-02-18T22:31:45.197Z,21.43
2018-02-18T22:34:11.411Z,21.57
2018-02-18T22:36:37.817Z,21.67
2018-02-18T22:39:05.098Z,23.07
2018-02-18T22:41:32.016Z,23.17
2018-02-18T22:43:58.287Z,22.20
2018-02-18T22:46:24.705Z,21.30
2018-02-18T22:48:50.921Z,21.50
2018-02-18T22:51:17.120Z,20.30
2018-02-18T22:53:43.540Z,21.57
2018-02-18T22:56:09.813Z,19.87
2018-02-18T22:58:36.895Z,21.77
2018-02-18T23:01:03.092Z,20.73
2018-02-18T23:03:29.535Z,20.50
2018-02-18T23:05:55.711Z,20.23
2018-02-18T23:08:21.920Z,21.33
2018-02-18T23:10:48.633Z,20.47
2018-02-18T23:13:14.850Z,20.33
2018-02-18T23:15:41.008Z,21.10
2018-02-18T23:18:07.378Z,18.77
2018-02-18T23:20:45.684Z,20.83
2018-02-18T23:23:12.052Z,18.47
2018-02-18T23:25:38.220Z,19.40
2018-02-18T23:28:05.155Z,19.27
2018-02-18T23:30:32.453Z,19.17
2018-02-18T23:32:58.860Z,54.77
2018-02-18T23:35:25.046Z,22.57
2018-02-18T23:37:51.229Z,19.20
2018-02-18T23:40:17.705Z,17.63
2018-02-18T23:42:44.767Z,21.30
2018-02-18T23:45:11.715Z,18.60
2018-02-18T23:47:37.928Z,19.17
2018-02-18T23:50:04.419Z,17.97
2018-02-18T23:52:30.629Z,17.80
2018-02-18T23:54:56.800Z,19.80
2018-02-18T23:57:23.856Z,19.93
2018-02-18T23:59:50.168Z,20.10
